Time;durP1;ratioP1;P1;durP2;ratioP2;P2;SDS_P1;SDS_P2;PMS_P1;PMS_P2;Temp;Humidity;BMP_temperature;BMP_pressure;BME280_temperature;BME280_humidity;BME280_pressure;Samples;Min_cycle;Max_cycle;Signal;HPM_P1;HPM_P2
2021/10/26 00:04:01;;;;;;;3.95;2.40;;;;;;;;;;4936033;28;20045;-68
2021/10/26 00:06:26;;;;;;;3.20;1.90;;;;;;;;;;5026599;28;20033;-67
2021/10/26 00:08:51;;;;;;;4.28;2.42;;;;;;;;;;5027077;28;20488;-68
2021/10/26 00:11:17;;;;;;;4.03;2.50;;;;;;;;;;5027144;28;20478;-67
2021/10/26 00:13:42;;;;;;;4.17;2.30;;;;;;;;;;5027182;28;20017;-67
2021/10/26 00:16:07;;;;;;;3.53;2.30;;;;;;;;;;5009450;28;20264;-68
2021/10/26 00:18:41;;;;;;;3.93;2.40;;;;;;;;;;5026901;28;20018;-67
2021/10/26 00:21:06;;;;;;;4.00;2.40;;;;;;;;;;5009855;28;20333;-68
2021/10/26 00:23:32;;;;;;;3.83;2.10;;;;;;;;;;5026813;28;20055;-68
2021/10/26 00:25:58;;;;;;;3.50;2.20;;;;;;;;;;5027038;28;20526;-68
2021/10/26 00:28:23;;;;;;;3.88;2.47;;;;;;;;;;5026575;28;20777;-67
2021/10/26 00:30:49;;;;;;;4.67;2.57;;;;;;;;;;5026833;28;20079;-67
2021/10/26 00:33:14;;;;;;;3.70;2.50;;;;;;;;;;5026495;28;20479;-67
2021/10/26 00:35:39;;;;;;;3.73;2.77;;;;;;;;;;5026600;28;20104;-68
2021/10/26 00:38:04;;;;;;;5.15;2.45;;;;;;;;;;5026270;28;20770;-68
2021/10/26 00:40:30;;;;;;;3.70;2.30;;;;;;;;;;5008873;28;20044;-68
2021/10/26 00:42:55;;;;;;;3.67;2.42;;;;;;;;;;5026514;28;20279;-67
2021/10/26 00:45:20;;;;;;;4.57;3.00;;;;;;;;;;5026579;28;20108;-68
2021/10/26 00:47:46;;;;;;;5.32;2.35;;;;;;;;;;5026063;28;20276;-67
2021/10/26 00:50:11;;;;;;;4.57;2.50;;;;;;;;;;5008591;28;20080;-67
2021/10/26 00:52:37;;;;;;;4.03;2.45;;;;;;;;;;5008160;28;20075;-67
2021/10/26 00:55:02;;;;;;;5.15;2.92;;;;;;;;;;5025905;28;20021;-68
2021/10/26 00:57:28;;;;;;;3.65;2.30;;;;;;;;;;5008463;28;20039;-68
2021/10/26 00:59:54;;;;;;;3.17;2.00;;;;;;;;;;5026044;28;20499;-67
2021/10/26 01:02:19;;;;;;;3.40;2.28;;;;;;;;;;5025471;28;20029;-67
2021/10/26 01:04:45;;;;;;;4.72;2.60;;;;;;;;;;5025832;28;20018;-68
2021/10/26 01:07:10;;;;;;;3.00;2.17;;;;;;;;;;5025808;28;20026;-67
2021/10/26 01:09:36;;;;;;;3.67;2.13;;;;;;;;;;5007934;28;20096;-67
2021/10/26 01:12:01;;;;;;;3.63;2.47;;;;;;;;;;5025578;28;20272;-67
2021/10/26 01:14:27;;;;;;;3.33;2.47;;;;;;;;;;5025355;28;20025;-68
2021/10/26 01:16:52;;;;;;;3.53;2.08;;;;;;;;;;5008089;28;20021;-68
2021/10/26 01:19:17;;;;;;;4.40;2.47;;;;;;;;;;5025360;28;20021;-67
2021/10/26 01:21:42;;;;;;;3.70;2.22;;;;;;;;;;5007702;28;20817;-68
2021/10/26 01:24:08;;;;;;;5.55;2.50;;;;;;;;;;5025581;28;20025;-68
2021/10/26 01:26:33;;;;;;;3.92;2.45;;;;;;;;;;5025476;28;20021;-68
2021/10/26 01:28:58;;;;;;;3.78;2.40;;;;;;;;;;5025221;28;20029;-68
2021/10/26 01:31:24;;;;;;;3.88;2.78;;;;;;;;;;5025386;28;20021;-68
2021/10/26 01:33:49;;;;;;;3.08;2.10;;;;;;;;;;5025372;28;20102;-68
2021/10/26 01:36:15;;;;;;;3.40;2.20;;;;;;;;;;5025402;28;20041;-68
2021/10/26 01:38:40;;;;;;;3.95;2.33;;;;;;;;;;5007423;28;20526;-68
2021/10/26 01:41:06;;;;;;;3.57;2.23;;;;;;;;;;5007470;28;20025;-67
2021/10/26 01:43:31;;;;;;;4.27;2.30;;;;;;;;;;5025264;28;20867;-68
2021/10/26 01:45:58;;;;;;;3.83;2.40;;;;;;;;;;5025575;28;20683;-68
2021/10/26 01:48:23;;;;;;;3.42;1.95;;;;;;;;;;5025267;28;20060;-68
2021/10/26 01:50:49;;;;;;;3.53;2.20;;;;;;;;;;5025329;28;20041;-68
2021/10/26 01:53:14;;;;;;;3.00;2.00;;;;;;;;;;5024760;28;20056;-68
2021/10/26 01:55:40;;;;;;;3.97;2.30;;;;;;;;;;5007101;28;20029;-68
2021/10/26 01:58:05;;;;;;;3.65;2.50;;;;;;;;;;5024776;28;20029;-68
2021/10/26 02:00:30;;;;;;;3.55;1.98;;;;;;;;;;5024970;28;20024;-68
2021/10/26 02:02:56;;;;;;;3.47;2.17;;;;;;;;;;5007091;28;20042;-68
2021/10/26 02:05:21;;;;;;;3.35;2.28;;;;;;;;;;5025285;28;20507;-68
2021/10/26 02:07:47;;;;;;;2.58;2.00;;;;;;;;;;5025457;28;20049;-67
2021/10/26 02:10:12;;;;;;;4.15;2.45;;;;;;;;;;5025090;28;20151;-68
2021/10/26 02:12:37;;;;;;;3.03;2.15;;;;;;;;;;5007341;28;20769;-68
2021/10/26 02:15:03;;;;;;;4.38;2.75;;;;;;;;;;5024737;28;20029;-68
2021/10/26 02:17:29;;;;;;;3.70;2.47;;;;;;;;;;5024924;28;20026;-68
2021/10/26 02:19:54;;;;;;;3.13;2.00;;;;;;;;;;5024669;28;20028;-68
2021/10/26 02:22:19;;;;;;;4.22;2.60;;;;;;;;;;5024614;28;20515;-68
2021/10/26 02:24:44;;;;;;;3.47;2.03;;;;;;;;;;5025003;28;20029;-68
2021/10/26 02:27:10;;;;;;;3.72;2.47;;;;;;;;;;5028786;28;20034;-68
2021/10/26 02:29:35;;;;;;;3.83;2.30;;;;;;;;;;5028624;28;20031;-68
2021/10/26 02:32:00;;;;;;;4.00;2.20;;;;;;;;;;5028741;28;20060;-67
2021/10/26 02:34:26;;;;;;;3.00;2.20;;;;;;;;;;5029074;28;20415;-67
2021/10/26 02:36:51;;;;;;;2.80;2.00;;;;;;;;;;5028952;28;20264;-68
2021/10/26 02:39:16;;;;;;;3.70;2.03;;;;;;;;;;5028562;28;20291;-68
2021/10/26 02:41:42;;;;;;;3.75;2.50;;;;;;;;;;5028415;28;20025;-67
2021/10/26 02:44:07;;;;;;;4.18;2.33;;;;;;;;;;5010945;28;20095;-68
2021/10/26 02:46:33;;;;;;;3.95;2.40;;;;;;;;;;5028496;28;20064;-68
2021/10/26 02:48:58;;;;;;;2.88;2.00;;;;;;;;;;5028678;28;20029;-68
2021/10/26 02:51:23;;;;;;;4.05;2.38;;;;;;;;;;5028365;28;20451;-68
2021/10/26 02:53:50;;;;;;;3.50;2.13;;;;;;;;;;5028214;28;20444;-67
2021/10/26 02:56:15;;;;;;;4.38;2.80;;;;;;;;;;5028185;28;20018;-67
2021/10/26 02:58:41;;;;;;;4.47;2.50;;;;;;;;;;5028051;28;20402;-68
2021/10/26 03:01:07;;;;;;;3.83;2.15;;;;;;;;;;5028122;28;20022;-68
2021/10/26 03:03:32;;;;;;;3.08;2.28;;;;;;;;;;5027901;28;20048;-68
2021/10/26 03:05:57;;;;;;;3.70;2.37;;;;;;;;;;5028494;28;20025;-67
2021/10/26 03:08:22;;;;;;;3.67;2.20;;;;;;;;;;5010297;28;20036;-68
2021/10/26 03:10:48;;;;;;;3.17;2.03;;;;;;;;;;5027767;28;20036;-68
2021/10/26 03:13:13;;;;;;;4.20;2.08;;;;;;;;;;5027601;28;20032;-68
2021/10/26 03:15:38;;;;;;;3.40;1.90;;;;;;;;;;5027991;28;20112;-68
2021/10/26 03:18:04;;;;;;;4.53;2.10;;;;;;;;;;5027939;28;20021;-68
2021/10/26 03:20:29;;;;;;;3.33;2.17;;;;;;;;;;5027632;28;20017;-68
2021/10/26 03:22:54;;;;;;;3.72;2.20;;;;;;;;;;5027633;28;20021;-68
2021/10/26 03:25:20;;;;;;;3.25;2.13;;;;;;;;;;5010133;28;20021;-68
2021/10/26 03:27:45;;;;;;;3.53;2.13;;;;;;;;;;5009896;28;20087;-68
2021/10/26 03:30:10;;;;;;;3.17;2.27;;;;;;;;;;5027539;28;20029;-68
2021/10/26 03:32:36;;;;;;;3.83;2.38;;;;;;;;;;5027287;28;20264;-68
2021/10/26 03:35:02;;;;;;;3.50;2.53;;;;;;;;;;5027526;28;20017;-68
2021/10/26 03:37:27;;;;;;;4.57;2.60;;;;;;;;;;5027480;28;20024;-67
2021/10/26 03:39:56;;;;;;;2.72;2.10;;;;;;;;;;5027225;28;20248;-67
2021/10/26 03:42:24;;;;;;;4.80;2.40;;;;;;;;;;5027085;28;20554;-67
2021/10/26 03:44:50;;;;;;;3.60;2.30;;;;;;;;;;5009700;28;20493;-68
2021/10/26 03:47:15;;;;;;;3.53;2.50;;;;;;;;;;5027414;28;20346;-68
2021/10/26 03:49:40;;;;;;;2.75;2.10;;;;;;;;;;5009401;28;20056;-68
2021/10/26 03:52:06;;;;;;;3.63;2.38;;;;;;;;;;5009126;28;20029;-68
2021/10/26 03:54:32;;;;;;;3.75;2.42;;;;;;;;;;5025372;28;20392;-68
2021/10/26 03:56:58;;;;;;;3.28;2.20;;;;;;;;;;5027444;28;20026;-67
2021/10/26 03:59:29;;;;;;;4.30;2.38;;;;;;;;;;5027922;28;20021;-67
2021/10/26 04:01:55;;;;;;;4.30;2.53;;;;;;;;;;5026906;28;20052;-67
2021/10/26 04:04:20;;;;;;;3.00;1.90;;;;;;;;;;5026739;28;20085;-66
2021/10/26 04:06:45;;;;;;;3.17;2.20;;;;;;;;;;5027181;28;20095;-68
2021/10/26 04:09:12;;;;;;;3.13;2.15;;;;;;;;;;5027000;28;20535;-68
2021/10/26 04:11:53;;;;;;;3.20;2.10;;;;;;;;;;5026584;28;20071;-67
2021/10/26 04:14:18;;;;;;;2.95;2.05;;;;;;;;;;5027110;28;20083;-68
2021/10/26 04:16:44;;;;;;;3.10;2.10;;;;;;;;;;5026937;28;20025;-67
2021/10/26 04:19:09;;;;;;;3.88;2.55;;;;;;;;;;5026875;28;20267;-68
2021/10/26 04:21:35;;;;;;;3.92;2.25;;;;;;;;;;5026400;28;20136;-67
2021/10/26 04:24:01;;;;;;;3.00;2.00;;;;;;;;;;5026939;28;20472;-68
2021/10/26 04:26:26;;;;;;;3.50;1.92;;;;;;;;;;5026652;28;20268;-68
2021/10/26 04:28:51;;;;;;;3.30;2.20;;;;;;;;;;5026616;28;20032;-68
2021/10/26 04:31:18;;;;;;;3.42;2.20;;;;;;;;;;5026273;28;20792;-68
2021/10/26 04:33:43;;;;;;;3.75;2.42;;;;;;;;;;5024613;28;20083;-68
2021/10/26 04:36:08;;;;;;;3.43;2.57;;;;;;;;;;5025820;28;20477;-70
2021/10/26 04:38:33;;;;;;;3.33;2.00;;;;;;;;;;5025938;28;20408;-71
2021/10/26 04:40:58;;;;;;;4.38;2.45;;;;;;;;;;5025205;28;20699;-71
2021/10/26 04:43:25;;;;;;;3.75;2.10;;;;;;;;;;5026067;28;20030;-71
2021/10/26 04:45:51;;;;;;;3.75;2.00;;;;;;;;;;5026227;28;20037;-71
2021/10/26 04:48:16;;;;;;;2.75;1.90;;;;;;;;;;5024872;28;20499;-72
2021/10/26 04:50:42;;;;;;;3.08;2.00;;;;;;;;;;5025182;28;20030;-71
2021/10/26 04:53:08;;;;;;;3.83;2.20;;;;;;;;;;5025634;28;20040;-72
2021/10/26 04:55:33;;;;;;;3.55;1.98;;;;;;;;;;5025513;28;20033;-71
2021/10/26 04:57:58;;;;;;;2.60;1.92;;;;;;;;;;5025426;28;20022;-71
2021/10/26 05:00:24;;;;;;;3.03;1.90;;;;;;;;;;5026052;28;20049;-69
2021/10/26 05:02:49;;;;;;;3.35;2.10;;;;;;;;;;5025675;28;20500;-70
2021/10/26 05:05:14;;;;;;;3.30;2.20;;;;;;;;;;5025736;28;20088;-71
2021/10/26 05:07:40;;;;;;;3.87;2.37;;;;;;;;;;5025619;28;20330;-71
2021/10/26 05:10:05;;;;;;;3.20;1.90;;;;;;;;;;5024947;28;20275;-71
2021/10/26 05:12:31;;;;;;;3.08;2.20;;;;;;;;;;5025280;28;20026;-71
2021/10/26 05:14:56;;;;;;;3.15;2.15;;;;;;;;;;5025543;28;20100;-70
2021/10/26 05:17:23;;;;;;;3.95;2.13;;;;;;;;;;5024799;28;20021;-69
2021/10/26 05:19:51;;;;;;;3.65;2.05;;;;;;;;;;4996893;28;20018;-69
2021/10/26 05:22:18;;;;;;;3.60;2.25;;;;;;;;;;5024861;28;20033;-71
2021/10/26 05:24:43;;;;;;;3.42;2.10;;;;;;;;;;5025303;28;20493;-70
2021/10/26 05:27:09;;;;;;;3.60;2.07;;;;;;;;;;5019992;28;20026;-71
2021/10/26 05:29:34;;;;;;;2.10;1.60;;;;;;;;;;5019363;28;20848;-70
2021/10/26 05:31:59;;;;;;;17.58;10.73;;;;;;;;;;5024711;28;20260;-70
2021/10/26 05:34:24;;;;;;;30.00;15.53;;;;;;;;;;5024296;28;20033;-69
2021/10/26 05:36:51;;;;;;;29.55;16.38;;;;;;;;;;5005506;28;20049;-70
2021/10/26 05:39:17;;;;;;;33.88;17.70;;;;;;;;;;5023635;28;20727;-69
2021/10/26 05:41:42;;;;;;;33.38;18.55;;;;;;;;;;5022974;28;20663;-70
2021/10/26 05:44:07;;;;;;;31.87;18.60;;;;;;;;;;5004274;28;20029;-71
2021/10/26 05:46:32;;;;;;;31.13;17.92;;;;;;;;;;5018497;28;20840;-71
2021/10/26 05:48:58;;;;;;;28.47;15.80;;;;;;;;;;5016056;28;20079;-70
2021/10/26 05:51:23;;;;;;;28.25;16.35;;;;;;;;;;5025054;28;20026;-71
2021/10/26 05:53:49;;;;;;;28.10;15.73;;;;;;;;;;4989627;28;20083;-72
2021/10/26 05:56:14;;;;;;;27.48;15.77;;;;;;;;;;5024212;28;20029;-71
2021/10/26 05:58:39;;;;;;;26.10;15.27;;;;;;;;;;5023630;28;20009;-71
2021/10/26 06:01:04;;;;;;;26.07;15.27;;;;;;;;;;5021409;28;20325;-72
2021/10/26 06:03:31;;;;;;;25.63;13.90;;;;;;;;;;5011471;28;20306;-71
2021/10/26 06:05:56;;;;;;;25.95;14.15;;;;;;;;;;5019904;28;20030;-73
2021/10/26 06:08:21;;;;;;;24.67;13.98;;;;;;;;;;5022973;28;20447;-74
2021/10/26 06:10:52;;;;;;;25.40;13.87;;;;;;;;;;5023983;28;20021;-74
2021/10/26 06:13:28;;;;;;;23.27;13.25;;;;;;;;;;5021375;28;20394;-73
2021/10/26 06:15:53;;;;;;;22.25;13.15;;;;;;;;;;5024398;28;20492;-73
2021/10/26 06:18:18;;;;;;;21.15;12.70;;;;;;;;;;5004551;28;20099;-74
2021/10/26 06:20:44;;;;;;;20.67;11.63;;;;;;;;;;5023466;28;20355;-75
2021/10/26 06:23:09;;;;;;;21.00;11.63;;;;;;;;;;5022799;28;20472;-73
2021/10/26 06:25:36;;;;;;;19.53;11.00;;;;;;;;;;5022942;28;20260;-74
2021/10/26 06:28:01;;;;;;;22.13;12.23;;;;;;;;;;5024042;28;20025;-72
2021/10/26 06:30:27;;;;;;;19.77;11.57;;;;;;;;;;5021194;28;20396;-72
2021/10/26 06:32:52;;;;;;;18.15;11.02;;;;;;;;;;5005594;28;20360;-72
2021/10/26 06:35:17;;;;;;;17.42;10.10;;;;;;;;;;5020082;28;20034;-72
2021/10/26 06:37:44;;;;;;;17.83;10.60;;;;;;;;;;5022728;28;20523;-73
2021/10/26 06:40:12;;;;;;;18.15;10.70;;;;;;;;;;5006404;28;20299;-73
2021/10/26 06:42:38;;;;;;;18.02;10.88;;;;;;;;;;5021866;28;20032;-72
2021/10/26 06:45:03;;;;;;;17.05;10.25;;;;;;;;;;5022866;28;20036;-71
2021/10/26 06:47:29;;;;;;;18.40;10.32;;;;;;;;;;5022011;28;20014;-73
2021/10/26 06:49:54;;;;;;;18.88;11.18;;;;;;;;;;5020635;28;20022;-75
2021/10/26 06:52:19;;;;;;;16.00;9.20;;;;;;;;;;5020931;28;20036;-74
2021/10/26 06:54:44;;;;;;;17.10;10.03;;;;;;;;;;5022299;28;20021;-72
2021/10/26 06:57:10;;;;;;;14.97;9.47;;;;;;;;;;5019953;28;20628;-67
2021/10/26 06:59:35;;;;;;;16.38;9.43;;;;;;;;;;5020830;28;20344;-67
2021/10/26 07:02:02;;;;;;;13.52;8.48;;;;;;;;;;5021093;28;20475;-67
2021/10/26 07:04:28;;;;;;;15.45;8.88;;;;;;;;;;5022037;28;20546;-67
2021/10/26 07:06:53;;;;;;;14.93;8.82;;;;;;;;;;5020570;28;20065;-67
2021/10/26 07:09:18;;;;;;;14.93;8.73;;;;;;;;;;5021812;28;20116;-67
2021/10/26 07:11:43;;;;;;;13.52;8.07;;;;;;;;;;5017964;28;20303;-66
2021/10/26 07:14:09;;;;;;;13.93;8.17;;;;;;;;;;5026125;28;20044;-67
2021/10/26 07:16:34;;;;;;;15.95;8.55;;;;;;;;;;5025865;28;21134;-66
2021/10/26 07:18:59;;;;;;;15.95;8.15;;;;;;;;;;5023696;28;20132;-66
2021/10/26 07:21:25;;;;;;;14.70;8.23;;;;;;;;;;5023010;28;20025;-70
2021/10/26 07:23:50;;;;;;;12.75;7.78;;;;;;;;;;5025272;28;20413;-70
2021/10/26 07:26:15;;;;;;;12.88;7.75;;;;;;;;;;5007244;28;20626;-70
2021/10/26 07:28:41;;;;;;;13.77;7.97;;;;;;;;;;4966386;28;20043;-70
2021/10/26 07:31:06;;;;;;;12.20;7.43;;;;;;;;;;5044639;28;20298;-68
2021/10/26 07:33:34;;;;;;;12.38;8.15;;;;;;;;;;5026979;28;20275;-68
2021/10/26 07:36:02;;;;;;;12.95;8.45;;;;;;;;;;5048422;28;20025;-66
2021/10/26 07:38:34;;;;;;;12.13;7.75;;;;;;;;;;5025588;28;20021;-64
2021/10/26 07:40:59;;;;;;;13.07;7.80;;;;;;;;;;5031892;28;20028;-65
2021/10/26 07:43:29;;;;;;;13.38;7.20;;;;;;;;;;5027838;28;20510;-69
2021/10/26 07:45:55;;;;;;;11.00;7.15;;;;;;;;;;5046860;28;20033;-69
2021/10/26 07:48:20;;;;;;;9.65;6.88;;;;;;;;;;5043922;28;20048;-70
2021/10/26 07:50:47;;;;;;;11.77;6.87;;;;;;;;;;5044136;28;20029;-69
2021/10/26 07:53:12;;;;;;;12.80;7.35;;;;;;;;;;5054154;28;20279;-69
2021/10/26 07:55:37;;;;;;;12.68;6.90;;;;;;;;;;5054493;28;20021;-70
2021/10/26 07:58:03;;;;;;;9.95;6.50;;;;;;;;;;5051121;28;20021;-69
2021/10/26 08:00:28;;;;;;;11.17;7.00;;;;;;;;;;5046778;28;20017;-67
2021/10/26 08:02:53;;;;;;;11.33;6.97;;;;;;;;;;5046137;28;20361;-69
2021/10/26 08:05:18;;;;;;;12.77;7.32;;;;;;;;;;5046482;28;20271;-68
2021/10/26 08:07:44;;;;;;;12.25;6.85;;;;;;;;;;5043652;28;20748;-68
2021/10/26 08:10:09;;;;;;;11.00;6.40;;;;;;;;;;5023395;28;20037;-68
2021/10/26 08:12:34;;;;;;;10.63;6.70;;;;;;;;;;5047047;28;20048;-67
2021/10/26 08:15:00;;;;;;;10.80;6.63;;;;;;;;;;5042981;28;20279;-68
2021/10/26 08:17:25;;;;;;;11.02;7.07;;;;;;;;;;5045142;28;20692;-68
2021/10/26 08:19:50;;;;;;;11.88;6.43;;;;;;;;;;5025627;28;20036;-67
2021/10/26 08:22:17;;;;;;;10.98;6.88;;;;;;;;;;5049220;28;20033;-68
2021/10/26 08:24:46;;;;;;;10.55;6.38;;;;;;;;;;5027235;28;20083;-69
2021/10/26 08:27:15;;;;;;;10.97;6.50;;;;;;;;;;5044726;28;20056;-70
2021/10/26 08:34:51;;;;;;;10.75;6.40;;;;;;;;;;5047145;28;20116;-69
2021/10/26 08:37:17;;;;;;;10.02;5.82;;;;;;;;;;5043853;28;20040;-69
2021/10/26 08:39:42;;;;;;;12.25;6.47;;;;;;;;;;5047096;28;20029;-69
2021/10/26 08:42:11;;;;;;;9.88;6.45;;;;;;;;;;5045743;28;20388;-72
2021/10/26 08:44:36;;;;;;;8.97;6.30;;;;;;;;;;5046264;28;20485;-77
2021/10/26 08:47:01;;;;;;;9.40;5.57;;;;;;;;;;5053887;28;20056;-66
2021/10/26 08:49:27;;;;;;;10.60;6.37;;;;;;;;;;5042414;28;20041;-66
2021/10/26 08:51:52;;;;;;;10.88;6.25;;;;;;;;;;5019436;28;20275;-68
2021/10/26 08:54:18;;;;;;;10.95;5.85;;;;;;;;;;5010984;28;20114;-68
2021/10/26 08:56:43;;;;;;;10.55;5.75;;;;;;;;;;5013954;28;20628;-67
2021/10/26 08:59:08;;;;;;;9.90;6.18;;;;;;;;;;5035538;28;20123;-65
2021/10/26 09:01:34;;;;;;;9.60;6.15;;;;;;;;;;5026441;28;20428;-65
2021/10/26 09:04:06;;;;;;;9.98;5.68;;;;;;;;;;5028888;28;20444;-64
2021/10/26 09:06:33;;;;;;;10.05;6.10;;;;;;;;;;5027496;28;20017;-66
2021/10/26 09:09:00;;;;;;;10.98;5.90;;;;;;;;;;5010829;28;20574;-66
2021/10/26 09:11:28;;;;;;;10.05;5.90;;;;;;;;;;5026777;28;20557;-64
2021/10/26 09:16:46;;;;;;;10.20;5.72;;;;;;;;;;5027528;28;20705;-67
2021/10/26 09:19:12;;;;;;;11.90;6.25;;;;;;;;;;5014164;28;20802;-67
2021/10/26 09:21:38;;;;;;;9.77;5.45;;;;;;;;;;5030679;28;20083;-67
2021/10/26 09:24:06;;;;;;;9.50;5.82;;;;;;;;;;5028250;28;20499;-66
2021/10/26 09:26:45;;;;;;;9.13;5.60;;;;;;;;;;5028233;28;20098;-65
2021/10/26 09:29:11;;;;;;;11.05;6.03;;;;;;;;;;5022156;28;20021;-66
2021/10/26 09:31:38;;;;;;;10.60;6.00;;;;;;;;;;5026716;28;20725;-66
2021/10/26 09:34:05;;;;;;;9.75;5.80;;;;;;;;;;5027130;28;20264;-72
2021/10/26 09:36:34;;;;;;;7.90;5.05;;;;;;;;;;5012122;28;20033;-71
2021/10/26 09:39:11;;;;;;;8.20;4.85;;;;;;;;;;5022438;28;20668;-71
2021/10/26 09:41:55;;;;;;;9.35;5.70;;;;;;;;;;5029408;28;20024;-73
2021/10/26 09:44:24;;;;;;;9.68;5.15;;;;;;;;;;5045068;28;20044;-80
2021/10/26 09:46:50;;;;;;;8.47;5.10;;;;;;;;;;5045609;28;20588;-71
2021/10/26 09:49:23;;;;;;;8.45;5.10;;;;;;;;;;5043190;28;20395;-70
2021/10/26 09:52:07;;;;;;;9.40;4.70;;;;;;;;;;5041705;28;20055;-71
2021/10/26 09:54:33;;;;;;;12.88;5.60;;;;;;;;;;5041743;28;20079;-72
2021/10/26 09:57:05;;;;;;;7.90;4.90;;;;;;;;;;5025345;28;20025;-71
2021/10/26 09:59:30;;;;;;;9.57;5.20;;;;;;;;;;5040745;28;20296;-66
2021/10/26 10:01:55;;;;;;;9.40;4.90;;;;;;;;;;5039625;28;20529;-67
2021/10/26 10:04:25;;;;;;;10.27;5.07;;;;;;;;;;5012267;28;20427;-72
2021/10/26 10:06:50;;;;;;;8.63;4.82;;;;;;;;;;5021848;28;20029;-73
2021/10/26 10:09:22;;;;;;;10.73;4.93;;;;;;;;;;5017735;28;20036;-74
2021/10/26 10:11:57;;;;;;;8.13;4.60;;;;;;;;;;5018499;28;20022;-73
2021/10/26 10:14:22;;;;;;;9.73;5.03;;;;;;;;;;4969230;28;20107;-71
2021/10/26 10:16:48;;;;;;;10.30;4.77;;;;;;;;;;5012109;28;20025;-71
2021/10/26 10:19:14;;;;;;;7.75;4.53;;;;;;;;;;5003896;28;20038;-69
2021/10/26 10:21:39;;;;;;;8.02;4.55;;;;;;;;;;5002939;28;20112;-69
2021/10/26 10:24:07;;;;;;;7.47;4.87;;;;;;;;;;5001904;28;20030;-72
2021/10/26 10:26:35;;;;;;;9.07;4.78;;;;;;;;;;5002881;28;20037;-68
2021/10/26 10:29:00;;;;;;;8.40;4.25;;;;;;;;;;5004164;28;20018;-69
2021/10/26 10:31:25;;;;;;;7.80;4.43;;;;;;;;;;5004551;28;20018;-70
2021/10/26 10:33:54;;;;;;;8.13;4.30;;;;;;;;;;5004061;28;20448;-71
2021/10/26 10:36:20;;;;;;;9.38;4.47;;;;;;;;;;5004868;28;20022;-71
2021/10/26 10:38:45;;;;;;;9.00;4.45;;;;;;;;;;5002776;28;20279;-71
2021/10/26 10:41:27;;;;;;;7.05;4.32;;;;;;;;;;5003389;28;20084;-73
2021/10/26 10:43:53;;;;;;;9.05;4.05;;;;;;;;;;5005129;28;20026;-70
2021/10/26 10:46:37;;;;;;;6.45;3.80;;;;;;;;;;5005793;28;20028;-69
2021/10/26 10:49:32;;;;;;;9.50;4.65;;;;;;;;;;5005694;28;20022;-71
2021/10/26 10:52:00;;;;;;;7.70;4.10;;;;;;;;;;4999243;28;20037;-73
2021/10/26 10:54:36;;;;;;;6.15;3.80;;;;;;;;;;5007947;28;20049;-69
2021/10/26 10:57:21;;;;;;;6.40;4.28;;;;;;;;;;5006239;28;20018;-68
2021/10/26 10:59:50;;;;;;;7.85;3.97;;;;;;;;;;5004884;28;20080;-70
2021/10/26 11:02:24;;;;;;;7.30;4.18;;;;;;;;;;5006588;28;20079;-70
2021/10/26 11:04:50;;;;;;;6.20;4.03;;;;;;;;;;5026140;28;20069;-70
2021/10/26 11:07:15;;;;;;;7.07;3.95;;;;;;;;;;5026613;28;20030;-71
2021/10/26 11:09:41;;;;;;;8.52;4.15;;;;;;;;;;5008429;28;20456;-71
2021/10/26 11:12:08;;;;;;;6.70;3.95;;;;;;;;;;5025753;28;20472;-71
2021/10/26 11:14:47;;;;;;;6.70;4.43;;;;;;;;;;5026210;28;20030;-71
2021/10/26 11:17:31;;;;;;;5.77;3.93;;;;;;;;;;5024530;28;20026;-71
2021/10/26 11:19:57;;;;;;;5.72;3.90;;;;;;;;;;5025242;28;20439;-70
2021/10/26 11:22:51;;;;;;;5.90;3.80;;;;;;;;;;5023489;28;20028;-70
2021/10/26 11:25:20;;;;;;;7.43;3.95;;;;;;;;;;5017123;28;20092;-70
2021/10/26 11:27:46;;;;;;;6.00;3.70;;;;;;;;;;5009482;28;20060;-70
2021/10/26 11:30:30;;;;;;;7.72;4.10;;;;;;;;;;5007768;28;20662;-70
2021/10/26 11:33:13;;;;;;;5.72;3.88;;;;;;;;;;5026076;28;20447;-68
2021/10/26 11:35:51;;;;;;;5.72;3.72;;;;;;;;;;5025358;28;20037;-69
2021/10/26 11:38:17;;;;;;;6.97;4.13;;;;;;;;;;5024233;28;20048;-70
2021/10/26 11:40:55;;;;;;;6.28;3.60;;;;;;;;;;5008377;28;20483;-70
2021/10/26 11:43:20;;;;;;;5.95;3.67;;;;;;;;;;5026031;28;20075;-70
2021/10/26 11:45:53;;;;;;;6.60;3.85;;;;;;;;;;5026694;28;20025;-70
2021/10/26 11:48:38;;;;;;;6.60;4.18;;;;;;;;;;5026398;28;20025;-70
2021/10/26 11:51:19;;;;;;;8.73;4.22;;;;;;;;;;5026377;28;20060;-68
2021/10/26 11:53:44;;;;;;;6.28;3.63;;;;;;;;;;5027105;28;20040;-68
2021/10/26 11:56:20;;;;;;;5.18;3.58;;;;;;;;;;5025194;28;20527;-67
2021/10/26 11:58:58;;;;;;;6.93;3.97;;;;;;;;;;5023306;28;20093;-77
2021/10/26 12:01:46;;;;;;;5.63;3.58;;;;;;;;;;5024604;28;20389;-74
2021/10/26 12:04:13;;;;;;;5.85;3.97;;;;;;;;;;5025661;28;20057;-69
2021/10/26 12:06:38;;;;;;;6.05;3.60;;;;;;;;;;5009495;28;20131;-68
2021/10/26 12:09:04;;;;;;;6.20;3.97;;;;;;;;;;5027452;28;20101;-73
2021/10/26 12:11:31;;;;;;;6.82;4.05;;;;;;;;;;5024523;28;20256;-73
2021/10/26 12:14:12;;;;;;;7.30;4.50;;;;;;;;;;5025890;28;20024;-73
2021/10/26 12:16:37;;;;;;;8.40;4.82;;;;;;;;;;5027336;28;20052;-72
2021/10/26 12:19:02;;;;;;;7.32;3.88;;;;;;;;;;5007697;28;20143;-73
2021/10/26 12:21:28;;;;;;;7.73;3.90;;;;;;;;;;5025977;28;20014;-77
2021/10/26 12:23:53;;;;;;;6.78;3.83;;;;;;;;;;5026391;28;20485;-76
2021/10/26 12:26:19;;;;;;;5.88;3.58;;;;;;;;;;5027873;28;20028;-76
2021/10/26 12:28:54;;;;;;;5.37;3.27;;;;;;;;;;5008951;28;20028;-76
2021/10/26 12:31:19;;;;;;;4.18;3.10;;;;;;;;;;5008093;28;20646;-75
2021/10/26 12:33:44;;;;;;;6.03;3.55;;;;;;;;;;5024347;28;20021;-78
2021/10/26 12:36:10;;;;;;;6.10;3.73;;;;;;;;;;5007323;28;20527;-78
2021/10/26 12:38:36;;;;;;;6.65;3.50;;;;;;;;;;5026568;28;20609;-86
2021/10/26 12:41:04;;;;;;;5.60;3.17;;;;;;;;;;5006592;28;20021;-83
2021/10/26 12:43:30;;;;;;;4.72;3.17;;;;;;;;;;5011908;28;20021;-82
2021/10/26 12:45:57;;;;;;;5.72;3.00;;;;;;;;;;5014673;28;20033;-86
2021/10/26 12:48:23;;;;;;;5.55;3.22;;;;;;;;;;5013461;28;20090;-84
2021/10/26 12:50:59;;;;;;;5.82;3.10;;;;;;;;;;5014908;28;20294;-85
2021/10/26 12:53:32;;;;;;;4.78;2.85;;;;;;;;;;5017385;28;20112;-87
2021/10/26 12:55:57;;;;;;;7.22;3.28;;;;;;;;;;5014073;28;20049;-83
2021/10/26 12:58:36;;;;;;;5.45;3.10;;;;;;;;;;5033230;28;20053;-82
2021/10/26 13:01:02;;;;;;;5.03;3.15;;;;;;;;;;5030974;28;20452;-89
2021/10/26 13:03:27;;;;;;;5.85;3.05;;;;;;;;;;5031154;28;20048;-86
2021/10/26 13:05:52;;;;;;;4.70;3.00;;;;;;;;;;5030018;28;20025;-82
2021/10/26 13:08:18;;;;;;;3.45;2.83;;;;;;;;;;5027441;28;20050;-80
2021/10/26 13:10:44;;;;;;;5.13;2.78;;;;;;;;;;5008094;28;20113;-69
2021/10/26 13:13:11;;;;;;;3.60;2.38;;;;;;;;;;5022507;28;20030;-69
2021/10/26 13:15:38;;;;;;;5.05;2.35;;;;;;;;;;5024182;28;20128;-68
2021/10/26 13:18:04;;;;;;;4.80;2.30;;;;;;;;;;5024281;28;20091;-69
2021/10/26 13:20:33;;;;;;;3.85;2.50;;;;;;;;;;5024412;28;20029;-68
2021/10/26 13:23:05;;;;;;;4.40;2.80;;;;;;;;;;5025096;28;20018;-68
2021/10/26 13:25:31;;;;;;;6.72;3.25;;;;;;;;;;5025024;28;20053;-76
2021/10/26 13:27:57;;;;;;;6.95;2.65;;;;;;;;;;5025804;28;20056;-71
2021/10/26 13:30:23;;;;;;;6.43;2.65;;;;;;;;;;5025317;28;20029;-72
2021/10/26 13:32:49;;;;;;;7.65;3.28;;;;;;;;;;5024652;28;20029;-69
2021/10/26 13:35:14;;;;;;;6.90;3.30;;;;;;;;;;5024357;28;20104;-72
2021/10/26 13:37:39;;;;;;;4.78;2.53;;;;;;;;;;5023729;28;20024;-74
2021/10/26 13:40:05;;;;;;;5.60;2.97;;;;;;;;;;5023348;28;20056;-73
2021/10/26 13:42:31;;;;;;;11.07;3.13;;;;;;;;;;5024238;28;20025;-73
2021/10/26 13:44:56;;;;;;;5.38;2.47;;;;;;;;;;5024265;28;20032;-71
2021/10/26 13:47:21;;;;;;;4.20;2.60;;;;;;;;;;5023206;28;20083;-70
2021/10/26 13:49:47;;;;;;;4.47;2.70;;;;;;;;;;5023267;28;20165;-69
2021/10/26 13:52:12;;;;;;;4.57;2.60;;;;;;;;;;5022855;28;20025;-69
2021/10/26 13:54:37;;;;;;;4.50;2.47;;;;;;;;;;5005992;28;20024;-70
2021/10/26 13:57:03;;;;;;;7.03;3.78;;;;;;;;;;5022315;28;20033;-69
2021/10/26 13:59:28;;;;;;;6.30;3.53;;;;;;;;;;5023574;28;20024;-69
2021/10/26 14:01:53;;;;;;;5.60;2.87;;;;;;;;;;5024641;28;20029;-69
2021/10/26 14:04:18;;;;;;;4.53;2.60;;;;;;;;;;5024249;28;20061;-68
2021/10/26 14:06:45;;;;;;;5.22;3.03;;;;;;;;;;5027078;28;20444;-67
2021/10/26 14:09:10;;;;;;;6.30;3.10;;;;;;;;;;5025052;28;20124;-66
2021/10/26 14:11:36;;;;;;;6.47;3.03;;;;;;;;;;5025483;28;20160;-69
2021/10/26 14:14:02;;;;;;;4.87;2.70;;;;;;;;;;5025912;28;20014;-68
2021/10/26 14:16:28;;;;;;;5.18;3.80;;;;;;;;;;5025637;28;20029;-68
2021/10/26 14:18:53;;;;;;;6.47;2.65;;;;;;;;;;5028041;28;20036;-66
2021/10/26 14:21:18;;;;;;;8.25;3.00;;;;;;;;;;5025550;28;20060;-67
2021/10/26 14:23:43;;;;;;;5.73;3.10;;;;;;;;;;5026873;28;20017;-67
2021/10/26 14:26:09;;;;;;;4.55;3.15;;;;;;;;;;5024466;28;20264;-66
2021/10/26 14:28:34;;;;;;;7.05;3.15;;;;;;;;;;5022017;28;20421;-66
2021/10/26 14:31:01;;;;;;;5.35;3.20;;;;;;;;;;5022208;28;20022;-67
2021/10/26 14:33:26;;;;;;;5.45;3.17;;;;;;;;;;5022251;28;20187;-67
2021/10/26 14:35:53;;;;;;;6.60;3.70;;;;;;;;;;5023338;28;20535;-66
2021/10/26 14:54:56;;;;;;;7.85;3.88;;;;;;;;;;5023241;28;20527;-67
2021/10/26 14:57:22;;;;;;;8.70;3.75;;;;;;;;;;5022939;28;20579;-69
2021/10/26 14:59:47;;;;;;;6.97;3.90;;;;;;;;;;5023095;28;20014;-69
2021/10/26 15:02:12;;;;;;;5.68;3.67;;;;;;;;;;5022788;28;20022;-69
2021/10/26 15:04:38;;;;;;;6.90;3.87;;;;;;;;;;5022758;28;20033;-68